createdAt,value
2022-09-07T00:00:07.900Z,100.00
2022-09-07T00:05:09.991Z,100.00
2022-09-07T00:10:11.779Z,100.00
2022-09-07T00:15:13.770Z,100.00
2022-09-07T00:20:17.086Z,100.00
2022-09-07T00:25:18.879Z,100.00
2022-09-07T00:30:20.683Z,100.00
2022-09-07T00:35:22.504Z,100.00
2022-09-07T00:40:24.353Z,100.00
2022-09-07T00:45:26.192Z,100.00
2022-09-07T00:50:33.852Z,100.00
2022-09-07T00:55:37.655Z,100.00
2022-09-07T01:00:44.834Z,100.00
2022-09-07T01:05:53.775Z,100.00
2022-09-07T01:10:58.050Z,100.00
2022-09-07T01:16:13.155Z,100.00
2022-09-07T01:21:22.452Z,100.00
2022-09-07T01:26:54.546Z,100.00
2022-09-07T01:31:56.317Z,100.00
2022-09-07T01:37:01.000Z,100.00
2022-09-07T01:42:18.988Z,100.00
2022-09-07T01:47:25.821Z,100.00
2022-09-07T01:52:33.573Z,100.00
2022-09-07T01:57:43.690Z,100.00
2022-09-07T02:03:04.689Z,100.00
2022-09-07T02:08:12.966Z,100.00
2022-09-07T02:13:21.731Z,100.00
2022-09-07T02:18:27.269Z,100.00
2022-09-07T02:23:33.206Z,100.00
2022-09-07T02:28:36.720Z,100.00
2022-09-07T02:33:38.895Z,100.00
2022-09-07T02:38:40.770Z,100.00
2022-09-07T02:43:42.589Z,100.00
2022-09-07T02:49:04.061Z,100.00
2022-09-07T02:54:05.857Z,100.00
2022-09-07T02:59:17.558Z,100.00
2022-09-07T03:04:29.025Z,100.00
2022-09-07T03:09:37.535Z,100.00
2022-09-07T03:14:41.699Z,100.00
2022-09-07T03:19:43.532Z,100.00
2022-09-07T03:24:45.705Z,100.00
2022-09-07T03:29:47.482Z,100.00
2022-09-07T03:34:49.283Z,100.00
2022-09-07T03:39:51.128Z,100.00
2022-09-07T03:44:53.020Z,100.00
2022-09-07T03:49:54.845Z,100.00
2022-09-07T03:54:56.658Z,100.00
2022-09-07T03:59:58.514Z,100.00
2022-09-07T04:05:00.313Z,100.00
2022-09-07T04:10:02.381Z,100.00
2022-09-07T04:15:04.473Z,100.00
2022-09-07T04:20:06.929Z,100.00
2022-09-07T04:25:08.971Z,100.00
2022-09-07T04:30:11.444Z,100.00
2022-09-07T04:35:13.930Z,100.00
2022-09-07T04:40:15.871Z,100.00
2022-09-07T04:45:17.734Z,100.00
2022-09-07T04:50:19.545Z,100.00
2022-09-07T04:55:21.785Z,100.00
2022-09-07T05:00:23.706Z,100.00
2022-09-07T05:05:25.632Z,100.00
2022-09-07T05:10:27.495Z,100.00
2022-09-07T05:15:30.639Z,100.00
2022-09-07T05:20:32.844Z,100.00
2022-09-07T05:25:34.945Z,100.00
2022-09-07T05:35:59.718Z,100.00
2022-09-07T05:41:02.096Z,100.00
2022-09-07T05:46:04.201Z,100.00
2022-09-07T05:51:07.085Z,100.00
2022-09-07T05:56:09.619Z,100.00
2022-09-07T06:01:12.618Z,100.00
2022-09-07T06:06:17.571Z,100.00
2022-09-07T06:11:22.288Z,100.00
2022-09-07T06:16:24.153Z,100.00
2022-09-07T06:21:26.069Z,100.00
2022-09-07T06:26:27.867Z,100.00
2022-09-07T06:31:30.046Z,100.00
2022-09-07T06:36:31.886Z,100.00
2022-09-07T06:52:04.259Z,100.00
2022-09-07T06:57:09.262Z,100.00
2022-09-07T07:02:15.102Z,100.00
2022-09-07T07:07:17.037Z,100.00
2022-09-07T07:17:19.537Z,100.00
2022-09-07T07:22:45.555Z,100.00
2022-09-07T07:27:45.999Z,100.00
2022-09-07T07:32:48.439Z,100.00
2022-09-07T07:43:15.802Z,100.00
2022-09-07T07:48:17.617Z,100.00
2022-09-07T07:58:45.401Z,100.00
2022-09-07T08:03:47.374Z,100.00
2022-09-07T08:08:49.217Z,100.00
2022-09-07T08:13:51.250Z,100.00
2022-09-07T08:18:53.761Z,100.00
2022-09-07T08:23:55.668Z,100.00
2022-09-07T08:28:58.778Z,100.00
2022-09-07T08:34:00.547Z,100.00
2022-09-07T08:39:02.625Z,100.00
2022-09-07T08:44:18.491Z,100.00
2022-09-07T08:49:30.278Z,100.00
2022-09-07T08:54:33.191Z,100.00
2022-09-07T08:59:42.995Z,100.00
2022-09-07T09:10:09.667Z,100.00
2022-09-07T09:15:21.311Z,100.00
2022-09-07T09:20:47.721Z,100.00
2022-09-07T09:25:59.586Z,100.00
2022-09-07T09:31:01.496Z,100.00
2022-09-07T09:36:03.315Z,100.00
2022-09-07T09:41:23.779Z,100.00
2022-09-07T09:46:27.315Z,100.00
2022-09-07T09:56:54.904Z,100.00
2022-09-07T10:07:27.417Z,100.00
2022-09-07T10:12:32.879Z,100.00
2022-09-07T10:17:47.666Z,100.00
2022-09-07T10:22:52.174Z,100.00
2022-09-07T10:28:08.435Z,100.00
2022-09-07T10:33:33.721Z,100.00
2022-09-07T10:38:44.868Z,100.00
2022-09-07T10:43:50.154Z,100.00
2022-09-07T10:49:40.009Z,100.00
2022-09-07T10:54:53.402Z,100.00
2022-09-07T11:00:16.190Z,100.00
2022-09-07T11:05:20.611Z,100.00
2022-09-07T11:10:42.029Z,100.00
2022-09-07T11:15:56.817Z,100.00
2022-09-07T11:21:01.778Z,100.00
2022-09-07T11:26:12.440Z,100.00
2022-09-07T11:31:23.324Z,100.00
2022-09-07T11:36:28.936Z,100.00
2022-09-07T11:41:36.996Z,100.00
2022-09-07T11:46:48.966Z,100.00
2022-09-07T11:51:53.560Z,100.00
2022-09-07T11:57:15.820Z,100.00
2022-09-07T12:02:59.782Z,100.00
2022-09-07T12:08:10.966Z,100.00
2022-09-07T12:13:34.857Z,100.00
2022-09-07T12:19:07.434Z,100.00
2022-09-07T12:24:43.166Z,100.00
2022-09-07T12:29:45.723Z,100.00
2022-09-07T12:34:53.588Z,100.00
2022-09-07T12:40:29.227Z,100.00
2022-09-07T12:45:30.956Z,100.00
2022-09-07T12:50:55.534Z,100.00
2022-09-07T12:56:17.482Z,100.00
2022-09-07T13:01:28.472Z,100.00
2022-09-07T13:07:05.599Z,100.00
2022-09-07T13:12:57.910Z,88.20
2022-09-07T13:17:59.739Z,73.71
2022-09-07T13:23:21.544Z,61.41
2022-09-07T13:28:28.790Z,60.21
2022-09-07T13:33:30.345Z,60.22
2022-09-07T13:38:36.396Z,62.66
2022-09-07T13:43:38.089Z,59.08
2022-09-07T13:49:01.124Z,54.61
2022-09-07T13:54:36.993Z,51.75
2022-09-07T13:59:42.467Z,50.88
2022-09-07T14:04:49.189Z,50.91
2022-09-07T14:10:20.645Z,48.93
2022-09-07T14:15:34.581Z,49.52
2022-09-07T14:20:43.757Z,49.10
2022-09-07T14:31:16.394Z,51.96
2022-09-07T14:41:43.273Z,78.64
2022-09-07T14:46:50.582Z,87.84
2022-09-07T14:51:55.325Z,83.45
2022-09-07T14:57:10.536Z,90.80
2022-09-07T15:02:18.238Z,83.99
2022-09-07T15:07:37.283Z,87.09
2022-09-07T15:12:42.213Z,86.73
2022-09-07T15:17:44.782Z,90.09
2022-09-07T15:22:46.443Z,92.53
2022-09-07T15:27:48.023Z,88.96
2022-09-07T15:32:49.607Z,91.91
2022-09-07T15:38:59.428Z,88.54
2022-09-07T15:43:20.317Z,96.26
2022-09-07T15:48:25.179Z,96.84
2022-09-07T15:58:53.137Z,100.00
2022-09-07T16:03:57.003Z,100.00
2022-09-07T16:08:58.626Z,100.00
2022-09-07T16:14:02.380Z,100.00
2022-09-07T16:19:07.307Z,100.00
2022-09-07T16:24:10.354Z,100.00
2022-09-07T16:29:12.159Z,100.00
2022-09-07T16:34:18.283Z,100.00
2022-09-07T16:39:20.349Z,100.00
2022-09-07T16:44:21.878Z,100.00
2022-09-07T16:49:23.534Z,100.00
2022-09-07T16:54:25.032Z,100.00
2022-09-07T16:59:26.815Z,100.00
2022-09-07T17:04:29.075Z,100.00
2022-09-07T17:09:30.713Z,100.00
2022-09-07T17:14:32.229Z,100.00
2022-09-07T17:19:34.456Z,100.00
2022-09-07T17:24:36.179Z,100.00
2022-09-07T17:29:37.937Z,100.00
2022-09-07T17:34:39.475Z,100.00
2022-09-07T17:39:41.221Z,100.00
2022-09-07T17:44:42.893Z,100.00
2022-09-07T17:49:44.982Z,100.00
2022-09-07T17:54:47.299Z,100.00
2022-09-07T18:05:11.518Z,100.00
2022-09-07T18:10:13.232Z,100.00
2022-09-07T18:15:14.900Z,100.00
2022-09-07T18:20:17.004Z,100.00
2022-09-07T18:25:18.602Z,100.00
2022-09-07T18:30:20.253Z,100.00
2022-09-07T18:35:22.514Z,100.00
2022-09-07T18:40:24.099Z,100.00
2022-09-07T18:45:27.509Z,100.00
2022-09-07T18:50:29.452Z,100.00
2022-09-07T18:55:32.232Z,100.00
2022-09-07T19:00:33.862Z,100.00
2022-09-07T19:05:51.419Z,100.00
2022-09-07T19:10:54.157Z,100.00
2022-09-07T19:16:07.452Z,100.00
2022-09-07T19:21:14.744Z,100.00
2022-09-07T19:26:18.283Z,100.00
2022-09-07T19:31:19.980Z,100.00
2022-09-07T19:36:21.887Z,100.00
2022-09-07T19:41:23.774Z,100.00
2022-09-07T19:46:25.770Z,100.00
2022-09-07T19:51:27.747Z,100.00
2022-09-07T19:56:29.245Z,100.00
2022-09-07T20:01:31.142Z,100.00
2022-09-07T20:06:34.278Z,100.00
2022-09-07T20:11:36.382Z,100.00
2022-09-07T20:16:39.912Z,100.00
2022-09-07T20:21:42.049Z,100.00
2022-09-07T20:26:43.544Z,100.00
2022-09-07T20:31:45.780Z,100.00
2022-09-07T20:36:52.321Z,100.00
2022-09-07T20:41:54.021Z,100.00
2022-09-07T20:46:55.679Z,100.00
2022-09-07T20:51:57.306Z,100.00
2022-09-07T20:57:03.266Z,100.00
2022-09-07T21:02:05.646Z,100.00
2022-09-07T21:07:07.200Z,100.00
2022-09-07T21:12:08.721Z,100.00
2022-09-07T21:17:10.286Z,100.00
2022-09-07T21:22:11.900Z,100.00
2022-09-07T21:27:13.409Z,100.00
2022-09-07T21:32:14.920Z,100.00
2022-09-07T21:37:16.768Z,100.00
2022-09-07T21:42:18.283Z,100.00
2022-09-07T21:47:19.832Z,100.00
2022-09-07T21:52:21.340Z,100.00
2022-09-07T21:57:23.439Z,100.00
2022-09-07T22:02:25.054Z,100.00
2022-09-07T22:07:26.606Z,100.00
2022-09-07T22:12:28.619Z,100.00
2022-09-07T22:17:44.474Z,100.00
2022-09-07T22:22:47.789Z,100.00
2022-09-07T22:27:49.636Z,100.00
2022-09-07T22:32:51.920Z,100.00
2022-09-07T22:37:53.496Z,100.00
2022-09-07T22:42:55.067Z,100.00
2022-09-07T22:47:57.345Z,100.00
2022-09-07T22:52:59.202Z,100.00
2022-09-07T22:58:00.706Z,100.00
2022-09-07T23:03:03.768Z,100.00
2022-09-07T23:08:05.814Z,100.00
2022-09-07T23:13:09.032Z,100.00
2022-09-07T23:18:19.340Z,100.00
2022-09-07T23:23:20.924Z,100.00
2022-09-07T23:28:22.555Z,100.00
2022-09-07T23:33:26.122Z,100.00
2022-09-07T23:38:28.444Z,100.00
2022-09-07T23:43:31.360Z,100.00
2022-09-07T23:48:33.044Z,100.00
2022-09-07T23:53:35.045Z,100.00
2022-09-07T23:58:36.714Z,100.00
